createdAt,value
2018-08-23T00:01:37.839Z,53.90
2018-08-23T00:04:11.498Z,54.10
2018-08-23T00:06:52.886Z,54.20
2018-08-23T00:09:23.509Z,54.40
2018-08-23T00:12:00.927Z,54.60
2018-08-23T00:14:31.567Z,54.60
2018-08-23T00:17:02.325Z,54.80
2018-08-23T00:19:32.876Z,55.00
2018-08-23T00:22:03.871Z,55.10
2018-08-23T00:24:34.451Z,55.20
2018-08-23T00:27:04.983Z,55.20
2018-08-23T00:29:35.810Z,55.30
2018-08-23T00:32:07.841Z,55.10
2018-08-23T00:34:40.370Z,55.30
2018-08-23T00:37:13.012Z,55.40
2018-08-23T00:39:43.541Z,55.70
2018-08-23T00:42:14.541Z,55.70
2018-08-23T00:45:02.489Z,55.90
2018-08-23T00:47:34.305Z,56.00
2018-08-23T00:50:05.334Z,56.10
2018-08-23T00:52:46.315Z,56.00
2018-08-23T00:55:26.998Z,56.00
2018-08-23T00:57:57.670Z,56.20
2018-08-23T01:00:29.229Z,56.30
2018-08-23T01:03:03.314Z,56.30
2018-08-23T01:05:40.785Z,56.50
2018-08-23T01:08:12.466Z,56.50
2018-08-23T01:10:43.127Z,56.60
2018-08-23T01:13:14.194Z,56.70
2018-08-23T01:15:45.821Z,56.90
2018-08-23T01:18:18.858Z,56.90
2018-08-23T01:20:51.075Z,56.90
2018-08-23T01:23:22.060Z,57.10
2018-08-23T01:25:53.432Z,57.10
2018-08-23T01:28:24.104Z,57.20
2018-08-23T01:30:55.928Z,57.30
2018-08-23T01:33:26.548Z,57.40
2018-08-23T01:35:57.470Z,57.60
2018-08-23T01:38:28.345Z,57.70
2018-08-23T01:41:04.091Z,57.80
2018-08-23T01:43:34.795Z,57.80
2018-08-23T01:46:05.821Z,58.00
2018-08-23T01:48:36.833Z,58.10
2018-08-23T01:51:07.612Z,58.20
2018-08-23T01:53:39.760Z,58.30
2018-08-23T01:56:10.473Z,58.20
2018-08-23T01:58:41.131Z,58.40
2018-08-23T02:01:16.349Z,59.00
2018-08-23T02:03:47.492Z,58.50
2018-08-23T02:06:18.237Z,58.50
2018-08-23T02:08:48.923Z,58.60
2018-08-23T02:11:20.038Z,58.60
2018-08-23T02:13:50.849Z,58.80
2018-08-23T02:16:21.705Z,58.80
2018-08-23T02:18:52.655Z,58.70
2018-08-23T02:21:23.359Z,58.80
2018-08-23T02:23:54.009Z,58.90
2018-08-23T02:26:25.063Z,59.00
2018-08-23T02:28:55.919Z,59.10
2018-08-23T02:31:26.580Z,59.10
2018-08-23T02:33:57.158Z,59.20
2018-08-23T02:36:27.783Z,59.20
2018-08-23T02:39:00.658Z,59.30
2018-08-23T02:41:31.530Z,59.50
2018-08-23T02:44:02.460Z,59.50
2018-08-23T02:46:33.844Z,59.60
2018-08-23T02:49:04.516Z,59.70
2018-08-23T02:51:43.540Z,59.60
2018-08-23T02:54:15.256Z,59.70
2018-08-23T02:57:01.704Z,59.80
2018-08-23T02:59:32.505Z,59.80
2018-08-23T03:02:02.991Z,59.80
2018-08-23T03:04:33.923Z,59.90
2018-08-23T03:07:04.799Z,60.00
2018-08-23T03:09:50.719Z,60.00
2018-08-23T03:12:21.417Z,60.00
2018-08-23T03:14:51.925Z,60.10
2018-08-23T03:17:25.909Z,60.30
2018-08-23T03:20:27.293Z,61.20
2018-08-23T03:22:57.985Z,60.40
2018-08-23T03:25:28.732Z,60.50
2018-08-23T03:27:59.449Z,60.50
2018-08-23T03:30:30.021Z,60.50
2018-08-23T03:33:00.730Z,60.70
2018-08-23T03:35:31.321Z,60.80
2018-08-23T03:38:02.265Z,60.80
2018-08-23T03:40:33.385Z,61.00
2018-08-23T03:43:03.888Z,61.10
2018-08-23T03:45:34.450Z,61.20
2018-08-23T03:48:05.134Z,61.10
2018-08-23T03:50:39.798Z,61.20
2018-08-23T03:53:10.295Z,61.20
2018-08-23T03:55:40.792Z,62.10
2018-08-23T03:58:11.558Z,61.30
2018-08-23T04:00:58.756Z,61.30
2018-08-23T04:03:29.357Z,61.20
2018-08-23T04:06:20.172Z,61.40
2018-08-23T04:08:50.849Z,61.60
2018-08-23T04:11:21.745Z,61.50
2018-08-23T04:13:52.440Z,61.60
2018-08-23T04:16:30.724Z,61.80
2018-08-23T04:19:01.295Z,61.80
2018-08-23T04:21:31.999Z,61.80
2018-08-23T04:24:02.653Z,61.90
2018-08-23T04:26:33.453Z,61.80
2018-08-23T04:29:04.049Z,62.80
2018-08-23T04:31:35.189Z,62.00
2018-08-23T04:34:07.418Z,62.20
2018-08-23T04:36:43.258Z,62.30
2018-08-23T04:39:13.557Z,61.60
2018-08-23T04:41:44.532Z,62.30
2018-08-23T04:44:16.895Z,62.50
2018-08-23T04:46:47.462Z,62.70
2018-08-23T04:49:18.070Z,62.70
2018-08-23T04:51:48.460Z,62.70
2018-08-23T04:54:19.081Z,62.80
2018-08-23T04:56:50.051Z,62.90
2018-08-23T04:59:20.654Z,62.90
2018-08-23T05:01:51.361Z,62.90
2018-08-23T05:04:21.897Z,63.00
2018-08-23T05:06:52.599Z,62.90
2018-08-23T05:09:23.484Z,63.10
2018-08-23T05:11:54.077Z,63.10
2018-08-23T05:14:24.717Z,63.10
2018-08-23T05:16:55.476Z,63.00
2018-08-23T05:19:26.111Z,62.40
2018-08-23T05:21:56.918Z,63.10
2018-08-23T05:24:27.713Z,63.10
2018-08-23T05:26:58.212Z,63.10
2018-08-23T05:29:29.175Z,63.30
2018-08-23T05:32:00.059Z,62.60
2018-08-23T05:34:30.601Z,63.40
2018-08-23T05:37:01.179Z,63.40
2018-08-23T05:39:49.180Z,63.60
2018-08-23T05:42:56.148Z,63.50
2018-08-23T05:45:35.889Z,63.40
2018-08-23T05:48:19.510Z,63.50
2018-08-23T05:50:50.345Z,63.60
2018-08-23T05:53:21.428Z,63.70
2018-08-23T05:55:54.900Z,63.80
2018-08-23T05:58:29.392Z,63.80
2018-08-23T06:00:59.888Z,63.90
2018-08-23T06:03:30.759Z,64.10
2018-08-23T06:06:01.525Z,64.20
2018-08-23T06:08:32.467Z,64.10
2018-08-23T06:11:07.849Z,64.20
2018-08-23T06:13:39.020Z,64.20
2018-08-23T06:16:09.593Z,64.10
2018-08-23T06:18:40.122Z,63.90
2018-08-23T06:21:11.031Z,64.00
2018-08-23T06:24:00.766Z,64.10
2018-08-23T06:26:44.129Z,64.20
2018-08-23T06:29:26.535Z,64.10
2018-08-23T06:32:09.450Z,64.20
2018-08-23T06:34:52.608Z,64.30
2018-08-23T06:37:23.656Z,64.20
2018-08-23T06:39:54.219Z,64.30
2018-08-23T06:42:45.536Z,64.40
2018-08-23T06:45:16.549Z,64.40
2018-08-23T06:47:50.123Z,64.40
2018-08-23T06:50:23.509Z,64.30
2018-08-23T06:52:54.245Z,64.60
2018-08-23T06:55:29.201Z,65.50
2018-08-23T06:58:00.211Z,64.60
2018-08-23T07:00:31.506Z,64.50
2018-08-23T07:03:04.901Z,64.40
2018-08-23T07:05:35.704Z,64.50
2018-08-23T07:08:06.544Z,64.40
2018-08-23T07:10:37.344Z,64.30
2018-08-23T07:13:08.534Z,64.20
2018-08-23T07:15:40.995Z,64.10
2018-08-23T07:18:16.134Z,64.10
2018-08-23T07:20:46.966Z,63.90
2018-08-23T07:23:31.664Z,63.90
2018-08-23T07:26:03.900Z,64.10
2018-08-23T07:28:37.049Z,63.90
2018-08-23T07:31:08.037Z,63.90
2018-08-23T07:33:39.144Z,63.70
2018-08-23T07:36:29.206Z,63.60
2018-08-23T07:38:59.783Z,63.60
2018-08-23T07:41:30.421Z,63.30
2018-08-23T07:44:01.140Z,63.30
2018-08-23T07:46:31.801Z,63.10
2018-08-23T07:49:02.759Z,62.70
2018-08-23T07:51:33.564Z,63.30
2018-08-23T07:54:08.341Z,62.10
2018-08-23T07:56:39.218Z,62.10
2018-08-23T07:59:10.135Z,62.10
2018-08-23T08:01:40.712Z,62.10
2018-08-23T08:04:11.656Z,62.10
2018-08-23T08:06:42.313Z,62.10
2018-08-23T08:09:13.240Z,62.20
2018-08-23T08:11:51.073Z,62.10
2018-08-23T08:14:26.961Z,61.80
2018-08-23T08:17:16.894Z,61.60
2018-08-23T08:20:02.184Z,61.50
2018-08-23T08:22:32.746Z,61.50
2018-08-23T08:25:19.423Z,61.50
2018-08-23T08:27:51.117Z,61.40
2018-08-23T08:30:39.873Z,61.30
2018-08-23T08:33:12.778Z,60.90
2018-08-23T08:35:44.817Z,60.70
2018-08-23T08:38:15.375Z,60.60
2018-08-23T08:40:46.109Z,60.70
2018-08-23T08:43:17.218Z,59.90
2018-08-23T08:45:48.006Z,59.70
2018-08-23T08:48:23.704Z,59.30
2018-08-23T08:51:16.357Z,59.10
2018-08-23T08:53:47.805Z,59.20
2018-08-23T08:56:24.370Z,59.10
2018-08-23T08:58:55.186Z,58.90
2018-08-23T09:01:26.151Z,58.60
2018-08-23T09:03:56.870Z,58.50
2018-08-23T09:06:47.341Z,58.60
2018-08-23T09:10:52.438Z,58.70
2018-08-23T09:13:27.249Z,58.50
2018-08-23T09:15:58.252Z,57.80
2018-08-23T09:18:29.284Z,57.50
2018-08-23T09:21:00.465Z,57.40
2018-08-23T09:23:32.349Z,57.40
2018-08-23T09:26:03.664Z,57.10
2018-08-23T09:28:35.372Z,57.10
2018-08-23T09:31:07.174Z,57.20
2018-08-23T09:33:38.342Z,57.00
2018-08-23T09:36:09.817Z,57.20
2018-08-23T09:38:41.110Z,57.00
2018-08-23T09:41:12.513Z,56.60
2018-08-23T09:43:44.149Z,55.60
2018-08-23T09:46:16.376Z,55.30
2018-08-23T09:48:48.252Z,54.90
2018-08-23T09:51:24.915Z,54.70
2018-08-23T09:53:56.349Z,55.20
2018-08-23T09:56:29.988Z,54.70
2018-08-23T09:59:01.767Z,54.60
2018-08-23T10:01:38.191Z,54.50
2018-08-23T10:04:14.839Z,53.70
2018-08-23T10:06:51.813Z,52.90
2018-08-23T10:09:24.568Z,52.40
2018-08-23T10:12:01.197Z,51.90
2018-08-23T10:14:37.682Z,51.30
2018-08-23T10:17:13.989Z,51.90
2018-08-23T10:19:51.263Z,52.60
2018-08-23T10:23:00.375Z,52.90
2018-08-23T10:25:46.913Z,52.80
2018-08-23T10:28:20.344Z,52.60
2018-08-23T10:30:51.930Z,52.30
2018-08-23T10:33:23.235Z,51.60
2018-08-23T10:35:56.399Z,51.60
2018-08-23T10:38:28.888Z,49.60
2018-08-23T10:41:04.799Z,49.00
2018-08-23T10:43:40.959Z,48.10
2018-08-23T10:46:12.690Z,47.40
2018-08-23T10:48:44.357Z,46.80
2018-08-23T10:51:15.940Z,46.50
2018-08-23T10:53:48.930Z,45.50
2018-08-23T10:56:20.163Z,45.30
2018-08-23T10:58:51.534Z,45.10
2018-08-23T11:01:22.665Z,44.50
2018-08-23T11:03:53.828Z,44.60
2018-08-23T11:06:25.198Z,44.80
2018-08-23T11:09:01.731Z,44.50
2018-08-23T11:11:33.784Z,43.90
2018-08-23T11:14:11.021Z,43.30
2018-08-23T11:16:48.878Z,43.10
2018-08-23T11:19:25.520Z,42.30
2018-08-23T11:21:56.759Z,41.70
2018-08-23T11:24:29.043Z,41.40
2018-08-23T11:27:00.942Z,41.30
2018-08-23T11:29:32.442Z,41.20
2018-08-23T11:32:03.806Z,41.10
2018-08-23T11:34:35.023Z,41.20
2018-08-23T11:37:06.387Z,41.50
2018-08-23T11:39:44.104Z,41.80
2018-08-23T11:42:15.456Z,42.10
2018-08-23T11:44:47.250Z,42.00
2018-08-23T11:47:18.553Z,42.20
2018-08-23T11:49:49.796Z,42.50
2018-08-23T11:52:20.977Z,42.50
2018-08-23T11:54:52.119Z,42.50
2018-08-23T11:57:23.314Z,42.80
2018-08-23T11:59:54.537Z,42.50
2018-08-23T12:02:25.894Z,41.90
2018-08-23T12:04:57.086Z,41.90
2018-08-23T12:07:29.846Z,42.30
2018-08-23T12:10:01.170Z,41.40
2018-08-23T12:12:32.605Z,41.20
2018-08-23T12:15:04.058Z,40.70
2018-08-23T12:17:35.381Z,40.30
2018-08-23T12:20:08.695Z,39.90
2018-08-23T12:22:42.167Z,39.70
2018-08-23T12:25:14.193Z,39.30
2018-08-23T12:29:03.787Z,39.20
2018-08-23T12:31:35.167Z,39.00
2018-08-23T12:34:08.440Z,38.50
2018-08-23T12:36:44.843Z,39.10
2018-08-23T12:39:21.093Z,38.30
2018-08-23T12:41:57.422Z,38.10
2018-08-23T12:44:28.737Z,37.70
2018-08-23T12:47:04.194Z,37.30
2018-08-23T12:49:35.545Z,36.90
2018-08-23T12:52:06.924Z,36.70
2018-08-23T12:54:38.454Z,36.40
2018-08-23T12:57:09.732Z,36.20
2018-08-23T12:59:41.048Z,36.10
2018-08-23T13:02:12.402Z,36.60
2018-08-23T13:04:43.658Z,36.20
2018-08-23T13:07:15.038Z,35.90
2018-08-23T13:09:46.747Z,35.50
2018-08-23T13:12:18.101Z,35.10
2018-08-23T13:14:49.381Z,35.50
2018-08-23T13:17:20.780Z,34.40
2018-08-23T13:19:52.022Z,34.40
2018-08-23T13:22:28.349Z,34.20
2018-08-23T13:25:06.129Z,34.00
2018-08-23T13:27:38.210Z,33.40
2018-08-23T13:30:10.436Z,32.80
2018-08-23T13:32:42.373Z,32.70
2018-08-23T13:35:14.023Z,32.70
2018-08-23T13:37:45.401Z,32.60
2018-08-23T13:40:17.307Z,32.90
2018-08-23T13:42:49.229Z,32.90
2018-08-23T13:45:20.506Z,33.20
2018-08-23T13:47:51.894Z,33.50
2018-08-23T13:50:23.141Z,33.90
2018-08-23T13:52:54.341Z,34.30
2018-08-23T13:55:25.517Z,34.70
2018-08-23T13:57:56.744Z,35.00
2018-08-23T14:00:32.936Z,35.30
2018-08-23T14:03:04.231Z,35.50
2018-08-23T14:05:35.807Z,35.70
2018-08-23T14:08:07.790Z,35.70
2018-08-23T14:10:39.062Z,36.50
2018-08-23T14:13:10.421Z,36.20
2018-08-23T14:15:46.913Z,36.50
2018-08-23T14:18:18.387Z,36.60
2018-08-23T14:20:49.958Z,36.70
2018-08-23T14:23:21.418Z,36.90
2018-08-23T14:25:53.152Z,37.00
2018-08-23T14:28:24.454Z,36.80
2018-08-23T14:30:56.120Z,37.00
2018-08-23T14:33:27.495Z,37.00
2018-08-23T14:35:59.434Z,37.40
2018-08-23T14:38:31.463Z,37.40
2018-08-23T14:41:02.982Z,37.30
2018-08-23T14:43:34.325Z,37.60
2018-08-23T14:46:10.761Z,37.70
2018-08-23T14:48:42.084Z,37.60
2018-08-23T14:51:17.960Z,37.70
2018-08-23T14:53:49.957Z,37.80
2018-08-23T14:56:26.354Z,38.00
2018-08-23T14:58:57.458Z,38.90
2018-08-23T15:01:28.949Z,38.30
2018-08-23T15:04:00.344Z,38.00
2018-08-23T15:06:31.626Z,37.70
2018-08-23T15:09:03.334Z,37.70
2018-08-23T15:11:34.841Z,37.60
2018-08-23T15:14:06.231Z,37.70
2018-08-23T15:16:37.563Z,37.90
2018-08-23T15:19:08.772Z,38.00
2018-08-23T15:21:40.186Z,37.90
2018-08-23T15:24:11.528Z,38.00
2018-08-23T15:26:43.243Z,38.00
2018-08-23T15:29:14.713Z,38.10
2018-08-23T15:31:46.358Z,38.20
2018-08-23T15:34:17.537Z,38.30
2018-08-23T15:36:49.068Z,38.40
2018-08-23T15:39:20.414Z,38.50
2018-08-23T15:41:51.967Z,38.60
2018-08-23T15:44:23.365Z,38.70
2018-08-23T15:46:54.775Z,38.40
2018-08-23T15:49:26.096Z,38.90
2018-08-23T15:51:57.344Z,39.00
2018-08-23T15:54:28.610Z,39.10
2018-08-23T15:56:59.738Z,39.20
2018-08-23T15:59:30.882Z,39.30
2018-08-23T16:02:02.007Z,39.30
2018-08-23T16:04:33.188Z,39.40
2018-08-23T16:07:04.289Z,39.60
2018-08-23T16:09:35.856Z,39.80
2018-08-23T16:12:07.265Z,39.80
2018-08-23T16:14:38.509Z,40.00
2018-08-23T16:17:15.017Z,40.20
2018-08-23T16:19:51.505Z,40.20
2018-08-23T16:22:22.997Z,40.30
2018-08-23T16:24:54.372Z,40.40
2018-08-23T16:27:25.668Z,40.50
2018-08-23T16:29:57.152Z,40.60
2018-08-23T16:32:33.461Z,40.70
2018-08-23T16:35:05.130Z,40.90
2018-08-23T16:37:36.266Z,41.00
2018-08-23T16:40:07.645Z,41.10
2018-08-23T16:42:38.845Z,41.00
2018-08-23T16:45:10.520Z,41.10
2018-08-23T16:47:41.883Z,41.10
2018-08-23T16:50:13.321Z,41.10
2018-08-23T16:52:44.830Z,41.20
2018-08-23T16:55:16.652Z,41.40
2018-08-23T16:57:47.852Z,41.40
2018-08-23T17:00:19.558Z,41.30
2018-08-23T17:02:50.674Z,41.50
2018-08-23T17:05:22.210Z,41.60
2018-08-23T17:07:53.583Z,41.70
2018-08-23T17:10:24.767Z,41.90
2018-08-23T17:12:56.065Z,41.90
2018-08-23T17:15:31.342Z,42.60
2018-08-23T17:18:02.700Z,42.00
2018-08-23T17:20:33.467Z,42.00
2018-08-23T17:23:04.848Z,42.00
2018-08-23T17:25:36.443Z,42.00
2018-08-23T17:28:07.718Z,42.30
2018-08-23T17:30:38.517Z,42.30
2018-08-23T17:33:09.414Z,42.30
2018-08-23T17:35:40.646Z,42.30
2018-08-23T17:38:12.219Z,42.60
2018-08-23T17:40:43.548Z,42.60
2018-08-23T17:43:14.676Z,42.80
2018-08-23T17:45:47.966Z,42.90
2018-08-23T17:48:18.751Z,42.90
2018-08-23T17:50:50.037Z,43.00
2018-08-23T17:53:20.797Z,43.00
2018-08-23T17:55:51.654Z,43.10
2018-08-23T17:58:22.165Z,43.20
2018-08-23T18:00:52.868Z,43.30
2018-08-23T18:03:24.264Z,43.30
2018-08-23T18:05:54.976Z,43.50
2018-08-23T18:08:25.866Z,43.50
2018-08-23T18:10:56.545Z,43.60
2018-08-23T18:13:27.777Z,43.60
2018-08-23T18:16:03.540Z,43.70
2018-08-23T18:18:34.374Z,43.90
2018-08-23T18:21:05.427Z,43.90
2018-08-23T18:23:36.602Z,43.90
2018-08-23T18:26:07.325Z,44.00
2018-08-23T18:28:37.942Z,43.90
2018-08-23T18:31:08.909Z,43.90
2018-08-23T18:33:39.832Z,44.00
2018-08-23T18:36:10.845Z,44.10
2018-08-23T18:38:41.824Z,44.30
2018-08-23T18:41:12.610Z,44.70
2018-08-23T18:43:43.148Z,44.40
2018-08-23T18:46:13.720Z,44.60
2018-08-23T18:48:44.551Z,44.80
2018-08-23T18:51:15.321Z,44.80
2018-08-23T18:53:45.945Z,44.80
2018-08-23T18:56:16.682Z,44.90
2018-08-23T18:58:47.567Z,45.10
2018-08-23T19:01:18.126Z,45.20
2018-08-23T19:03:48.723Z,45.30
2018-08-23T19:06:19.797Z,45.50
2018-08-23T19:08:50.461Z,45.30
2018-08-23T19:11:21.130Z,45.60
2018-08-23T19:13:52.200Z,45.50
2018-08-23T19:16:28.580Z,45.70
2018-08-23T19:18:59.402Z,45.80
2018-08-23T19:21:30.290Z,45.80
2018-08-23T19:24:01.169Z,45.90
2018-08-23T19:26:32.109Z,46.00
2018-08-23T19:29:03.281Z,46.00
2018-08-23T19:31:34.044Z,46.20
2018-08-23T19:34:05.163Z,46.10
2018-08-23T19:36:35.854Z,46.20
2018-08-23T19:39:11.614Z,46.30
2018-08-23T19:41:42.278Z,46.50
2018-08-23T19:44:13.024Z,46.40
2018-08-23T19:46:48.924Z,46.70
2018-08-23T19:49:24.897Z,46.70
2018-08-23T19:51:55.792Z,46.90
2018-08-23T19:54:26.486Z,47.00
2018-08-23T19:56:56.977Z,47.10
2018-08-23T19:59:27.805Z,47.20
2018-08-23T20:01:58.494Z,47.40
2018-08-23T20:04:29.282Z,47.40
2018-08-23T20:07:00.299Z,47.70
2018-08-23T20:09:31.142Z,47.60
2018-08-23T20:12:01.734Z,47.60
2018-08-23T20:14:32.776Z,47.70
2018-08-23T20:17:04.055Z,47.70
2018-08-23T20:19:34.922Z,47.80
2018-08-23T20:22:07.916Z,47.80
2018-08-23T20:24:41.066Z,48.10
2018-08-23T20:27:11.717Z,47.90
2018-08-23T20:29:42.315Z,48.00
2018-08-23T20:32:13.120Z,48.00
2018-08-23T20:34:44.221Z,48.20
2018-08-23T20:37:15.004Z,48.10
2018-08-23T20:39:46.098Z,48.30
2018-08-23T20:42:16.960Z,48.40
2018-08-23T20:44:47.573Z,48.40
2018-08-23T20:47:18.322Z,48.60
2018-08-23T20:49:49.319Z,48.50
2018-08-23T20:52:19.933Z,48.60
2018-08-23T20:54:50.620Z,48.70
2018-08-23T20:57:21.382Z,48.90
2018-08-23T20:59:52.084Z,48.90
2018-08-23T21:02:23.280Z,49.00
2018-08-23T21:04:54.111Z,49.00
2018-08-23T21:07:25.135Z,49.00
2018-08-23T21:09:55.806Z,49.10
2018-08-23T21:12:26.816Z,49.10
2018-08-23T21:14:57.757Z,49.30
2018-08-23T21:17:28.858Z,49.80
2018-08-23T21:19:59.728Z,49.20
2018-08-23T21:22:30.419Z,49.40
2018-08-23T21:25:01.379Z,49.50
2018-08-23T21:27:38.651Z,49.70
2018-08-23T21:30:10.518Z,49.70
2018-08-23T21:32:41.351Z,49.60
2018-08-23T21:35:11.951Z,49.70
2018-08-23T21:37:42.461Z,49.60
2018-08-23T21:40:13.474Z,49.70
2018-08-23T21:42:43.981Z,49.80
2018-08-23T21:45:14.804Z,49.80
2018-08-23T21:47:45.529Z,50.00
2018-08-23T21:50:16.866Z,50.10
2018-08-23T21:52:47.552Z,50.10
2018-08-23T21:55:18.306Z,50.30
2018-08-23T21:57:49.026Z,50.20
2018-08-23T22:00:19.705Z,50.30
2018-08-23T22:02:50.334Z,50.20
2018-08-23T22:05:21.182Z,50.40
2018-08-23T22:07:52.282Z,50.40
2018-08-23T22:10:22.810Z,50.60
2018-08-23T22:12:53.587Z,50.90
2018-08-23T22:15:24.413Z,50.80
2018-08-23T22:17:55.599Z,51.10
2018-08-23T22:20:26.181Z,51.00
2018-08-23T22:22:56.949Z,51.10
2018-08-23T22:25:27.760Z,51.10
2018-08-23T22:27:58.490Z,51.10
2018-08-23T22:30:29.150Z,51.00
2018-08-23T22:32:59.725Z,51.10
2018-08-23T22:35:30.855Z,51.10
2018-08-23T22:38:01.858Z,51.10
2018-08-23T22:40:32.690Z,51.10
2018-08-23T22:43:03.314Z,51.10
2018-08-23T22:45:34.290Z,51.10
2018-08-23T22:48:05.998Z,51.10
2018-08-23T22:50:36.670Z,51.20
2018-08-23T22:53:07.508Z,51.10
2018-08-23T22:55:38.218Z,51.20
2018-08-23T22:58:08.964Z,51.20
2018-08-23T23:00:41.104Z,51.30
2018-08-23T23:03:17.667Z,51.20
2018-08-23T23:05:48.412Z,51.30
2018-08-23T23:08:19.354Z,51.40
2018-08-23T23:10:50.498Z,51.40
2018-08-23T23:13:21.083Z,51.40
2018-08-23T23:15:51.864Z,51.50
2018-08-23T23:18:23.001Z,51.80
2018-08-23T23:20:54.218Z,51.80
2018-08-23T23:23:24.897Z,52.00
2018-08-23T23:25:55.955Z,52.00
2018-08-23T23:28:26.645Z,52.10
2018-08-23T23:30:57.489Z,52.20
2018-08-23T23:33:28.299Z,52.40
2018-08-23T23:35:59.304Z,52.40
2018-08-23T23:38:30.077Z,52.50
2018-08-23T23:41:01.130Z,52.70
2018-08-23T23:43:31.843Z,53.00
2018-08-23T23:46:02.590Z,53.30
2018-08-23T23:48:33.221Z,53.40
2018-08-23T23:51:03.990Z,53.50
2018-08-23T23:53:35.067Z,53.70
2018-08-23T23:56:05.752Z,53.80
2018-08-23T23:58:36.662Z,53.90
